Main page
METAR-TAF:

METAR-TAF

Airports :

Altenstadt Air Base

Altenstadt, Germany

latitude: 47-50N, longitude: 010-52E, elevation: 739 m

Current weather observation

The report was made 26 minutes ago, at 07:20 UTC
Wind 1 kt from variable directions
Temperature 11°C
Humidity 71%
Pressure 1027 hPa

METAR: ETHA 190720Z AUTO VRB01KT //// // ////// 11/06 Q1027 ///

Time: 09:46 (07:46 UTC)

Forecast

The report was made 16 hours and 31 minutes ago, at 15:15 UTC
Forecast valid from 18 at 14 UTC to 18 at 23 UTC
Wind 10 kt from the East/Northeast with gusts up to 20 kt
Visibility: 1620 m
Few clouds at a height of 4000 ft
Scattered clouds at a height of 28000 ft

TAF: ETHA 181515Z 1814/1823 07010G20KT 9999 NSW FEW040 SCT280 CANCEL 1620

Weather observations and forecasts of more than 4000 airports (METAR and TAF reports).

The available stations are represented by yellow and red dots on the map.

Hover mouse over dot to see the name of the station.

Then click to see weather observations and forecasts.

To change the map : click on the green buttons with a black cross to zoom in, on the green button with a dash to zoom out, or on the green arrows for adjacent maps.


METAR-TAF: